createdAt,value
2022-08-19T00:01:56.826Z,94.20
2022-08-19T00:04:28.221Z,94.30
2022-08-19T00:06:58.682Z,94.40
2022-08-19T00:09:27.811Z,94.40
2022-08-19T00:11:59.362Z,94.50
2022-08-19T00:14:31.442Z,94.50
2022-08-19T00:16:59.857Z,94.50
2022-08-19T00:19:28.221Z,94.60
2022-08-19T00:21:57.980Z,94.60
2022-08-19T00:24:26.662Z,94.60
2022-08-19T00:26:56.200Z,94.70
2022-08-19T00:29:25.964Z,94.70
2022-08-19T00:31:55.736Z,94.80
2022-08-19T00:34:24.787Z,94.90
2022-08-19T00:36:53.276Z,94.90
2022-08-19T00:39:23.274Z,95.00
2022-08-19T00:41:52.419Z,95.00
2022-08-19T00:44:27.105Z,95.20
2022-08-19T00:46:58.200Z,95.30
2022-08-19T00:49:31.774Z,95.40
2022-08-19T00:52:03.921Z,95.50
2022-08-19T00:54:34.206Z,95.60
2022-08-19T00:57:07.174Z,95.70
2022-08-19T01:00:00.906Z,95.80
2022-08-19T01:02:29.256Z,95.80
2022-08-19T01:04:58.151Z,95.90
2022-08-19T01:07:26.646Z,96.00
2022-08-19T01:09:56.518Z,96.00
2022-08-19T01:12:25.388Z,96.10
2022-08-19T01:14:54.575Z,96.20
2022-08-19T01:17:23.499Z,96.30
2022-08-19T01:19:51.959Z,96.30
2022-08-19T01:22:33.483Z,96.40
2022-08-19T01:25:03.659Z,96.50
2022-08-19T01:27:43.129Z,96.60
2022-08-19T01:30:14.769Z,96.60
2022-08-19T01:32:44.414Z,96.70
2022-08-19T01:35:14.646Z,96.70
2022-08-19T01:37:57.113Z,96.80
2022-08-19T01:40:28.824Z,96.90
2022-08-19T01:42:57.730Z,97.00
2022-08-19T01:45:28.662Z,97.00
2022-08-19T01:48:01.692Z,97.10
2022-08-19T01:50:32.010Z,97.20
2022-08-19T01:53:06.985Z,97.30
2022-08-19T01:55:40.647Z,97.30
2022-08-19T01:58:13.588Z,97.40
2022-08-19T02:00:42.548Z,97.50
2022-08-19T02:03:12.451Z,97.60
2022-08-19T02:05:42.266Z,97.70
2022-08-19T02:08:12.947Z,97.70
2022-08-19T02:10:43.410Z,97.70
2022-08-19T02:13:12.549Z,97.80
2022-08-19T02:15:40.959Z,97.90
2022-08-19T02:18:09.496Z,98.00
2022-08-19T02:20:39.658Z,98.00
2022-08-19T02:23:13.580Z,98.10
2022-08-19T02:25:47.310Z,98.10
2022-08-19T02:28:18.748Z,98.20
2022-08-19T02:30:49.498Z,98.20
2022-08-19T02:33:18.596Z,98.30
2022-08-19T02:35:48.338Z,98.30
2022-08-19T02:38:29.156Z,98.40
2022-08-19T02:41:01.014Z,98.50
2022-08-19T02:43:33.665Z,98.50
2022-08-19T02:46:02.947Z,98.50
2022-08-19T02:48:34.008Z,98.50
2022-08-19T02:51:02.511Z,98.60
2022-08-19T02:53:31.464Z,98.60
2022-08-19T02:56:01.498Z,98.70
2022-08-19T02:58:30.147Z,98.80
2022-08-19T03:00:59.506Z,98.80
2022-08-19T03:03:28.367Z,98.90
2022-08-19T03:06:09.934Z,98.90
2022-08-19T03:08:39.364Z,99.00
2022-08-19T03:11:14.740Z,99.10
2022-08-19T03:13:44.315Z,99.10
2022-08-19T03:16:12.968Z,99.10
2022-08-19T03:18:41.485Z,99.20
2022-08-19T03:21:12.268Z,99.20
2022-08-19T03:23:41.216Z,99.20
2022-08-19T03:26:16.793Z,99.30
2022-08-19T03:28:51.726Z,99.30
2022-08-19T03:31:43.282Z,99.40
2022-08-19T03:34:15.383Z,99.40
2022-08-19T03:36:43.722Z,99.50
2022-08-19T03:39:13.070Z,99.50
2022-08-19T03:41:46.564Z,99.60
2022-08-19T03:44:20.725Z,99.60
2022-08-19T03:46:50.799Z,99.60
2022-08-19T03:49:20.272Z,99.60
2022-08-19T03:51:51.278Z,99.70
2022-08-19T03:54:22.074Z,99.70
2022-08-19T03:56:53.477Z,99.80
2022-08-19T03:59:27.029Z,99.80
2022-08-19T04:01:56.383Z,99.90
2022-08-19T04:04:25.520Z,99.90
2022-08-19T04:06:57.856Z,99.90
2022-08-19T04:09:26.836Z,99.90
2022-08-19T04:11:58.265Z,99.90
2022-08-19T04:14:29.424Z,99.90
2022-08-19T04:16:58.387Z,99.90
2022-08-19T04:19:27.309Z,99.90
2022-08-19T04:21:56.827Z,99.90
2022-08-19T04:24:25.856Z,99.90
2022-08-19T04:26:54.304Z,99.90
2022-08-19T04:29:28.042Z,99.90
2022-08-19T04:31:58.197Z,99.90
2022-08-19T04:34:29.692Z,99.90
2022-08-19T04:36:59.993Z,99.90
2022-08-19T04:39:45.832Z,99.90
2022-08-19T04:42:31.706Z,99.90
2022-08-19T04:45:01.874Z,99.90
2022-08-19T04:47:47.616Z,99.90
2022-08-19T04:50:20.980Z,99.90
2022-08-19T04:52:49.335Z,99.90
2022-08-19T04:55:17.745Z,99.90
2022-08-19T04:57:46.011Z,99.90
2022-08-19T05:00:16.110Z,99.90
2022-08-19T05:02:44.508Z,99.90
2022-08-19T05:05:13.596Z,99.90
2022-08-19T05:07:41.906Z,99.90
2022-08-19T05:10:10.835Z,99.90
2022-08-19T05:12:39.230Z,99.90
2022-08-19T05:15:09.565Z,99.90
2022-08-19T05:17:59.366Z,99.90
2022-08-19T05:20:45.053Z,99.90
2022-08-19T05:23:21.851Z,99.90
2022-08-19T05:25:51.449Z,99.90
2022-08-19T05:28:20.715Z,99.90
2022-08-19T05:30:49.462Z,99.90
2022-08-19T05:33:19.859Z,99.90
2022-08-19T05:35:49.432Z,99.90
2022-08-19T05:38:18.247Z,99.90
2022-08-19T05:40:50.622Z,99.90
2022-08-19T05:43:19.249Z,99.90
2022-08-19T05:45:48.118Z,99.90
2022-08-19T05:48:18.490Z,99.90
2022-08-19T05:50:51.359Z,99.90
2022-08-19T05:53:20.249Z,99.90
2022-08-19T05:55:48.828Z,99.90
2022-08-19T05:58:17.433Z,99.90
2022-08-19T06:00:46.636Z,99.90
2022-08-19T06:03:14.950Z,99.90
2022-08-19T06:05:52.027Z,99.90
2022-08-19T06:08:34.352Z,99.90
2022-08-19T06:11:20.964Z,99.90
2022-08-19T06:13:52.175Z,99.90
2022-08-19T06:16:27.956Z,99.90
2022-08-19T06:18:57.992Z,99.90
2022-08-19T06:21:29.139Z,99.90
2022-08-19T06:24:00.679Z,99.90
2022-08-19T06:26:29.776Z,99.90
2022-08-19T06:28:58.211Z,99.90
2022-08-19T06:31:30.222Z,99.90
2022-08-19T06:33:58.606Z,99.90
2022-08-19T06:36:32.702Z,99.90
2022-08-19T06:39:03.650Z,99.90
2022-08-19T06:41:32.518Z,99.90
2022-08-19T06:44:00.777Z,99.90
2022-08-19T06:46:29.576Z,99.90
2022-08-19T06:49:02.545Z,99.90
2022-08-19T06:54:03.445Z,99.90
2022-08-19T06:56:34.754Z,99.90
2022-08-19T06:59:04.657Z,99.90
2022-08-19T07:01:36.106Z,99.90
2022-08-19T07:04:04.658Z,99.90
2022-08-19T07:06:44.277Z,99.90
2022-08-19T07:09:18.455Z,99.90
2022-08-19T07:11:48.503Z,99.90
2022-08-19T07:14:20.069Z,99.90
2022-08-19T07:16:49.516Z,99.90
2022-08-19T07:19:18.662Z,99.90
2022-08-19T07:21:48.310Z,99.90
2022-08-19T07:24:18.327Z,99.90
2022-08-19T07:26:47.300Z,99.90
2022-08-19T07:29:24.235Z,99.90
2022-08-19T07:31:57.274Z,99.80
2022-08-19T07:34:26.475Z,99.70
2022-08-19T07:36:55.586Z,99.70
2022-08-19T07:39:27.707Z,99.50
2022-08-19T07:41:57.293Z,99.50
2022-08-19T07:44:25.895Z,99.50
2022-08-19T07:46:56.763Z,99.40
2022-08-19T07:49:25.639Z,99.30
2022-08-19T07:51:56.848Z,99.30
2022-08-19T07:54:28.288Z,99.30
2022-08-19T07:56:57.778Z,99.40
2022-08-19T07:59:26.768Z,99.40
2022-08-19T08:01:55.145Z,99.50
2022-08-19T08:04:41.613Z,99.40
2022-08-19T08:07:31.450Z,99.20
2022-08-19T08:10:02.800Z,99.10
2022-08-19T08:12:35.396Z,99.20
2022-08-19T08:15:08.931Z,99.10
2022-08-19T08:17:51.439Z,99.10
2022-08-19T08:20:21.388Z,99.20
2022-08-19T08:23:08.205Z,99.10
2022-08-19T08:25:39.021Z,98.80
2022-08-19T08:28:09.769Z,98.50
2022-08-19T08:30:45.279Z,98.30
2022-08-19T08:33:14.014Z,98.30
2022-08-19T08:35:44.054Z,98.30
2022-08-19T08:38:12.375Z,98.30
2022-08-19T08:40:47.489Z,98.20
2022-08-19T08:43:24.377Z,98.10
2022-08-19T08:46:00.516Z,98.10
2022-08-19T08:48:38.040Z,97.90
2022-08-19T08:51:11.238Z,97.60
2022-08-19T08:53:41.978Z,97.50
2022-08-19T08:56:14.139Z,97.50
2022-08-19T08:58:56.651Z,97.30
2022-08-19T09:01:25.087Z,97.20
2022-08-19T09:04:02.800Z,96.90
2022-08-19T09:06:40.539Z,96.80
2022-08-19T09:09:16.893Z,96.90
2022-08-19T09:11:57.827Z,96.80
2022-08-19T09:14:51.563Z,96.70
2022-08-19T09:17:29.264Z,96.70
2022-08-19T09:20:00.144Z,96.60
2022-08-19T09:22:30.085Z,96.60
2022-08-19T09:24:58.501Z,96.60
2022-08-19T09:27:41.768Z,96.40
2022-08-19T09:30:14.838Z,96.30
2022-08-19T09:32:44.556Z,96.00
2022-08-19T09:35:13.658Z,95.50
2022-08-19T09:37:43.760Z,95.40
2022-08-19T09:40:13.905Z,95.30
2022-08-19T09:42:50.096Z,95.20
2022-08-19T09:45:22.907Z,95.20
2022-08-19T09:47:54.289Z,95.10
2022-08-19T09:50:24.430Z,95.00
2022-08-19T09:52:57.315Z,95.00
2022-08-19T09:55:31.726Z,94.90
2022-08-19T09:58:03.691Z,94.80
2022-08-19T10:00:32.777Z,94.50
2022-08-19T10:03:01.256Z,94.40
2022-08-19T10:05:48.708Z,94.20
2022-08-19T10:08:20.977Z,94.00
2022-08-19T10:10:50.145Z,93.80
2022-08-19T10:13:26.113Z,93.70
2022-08-19T10:15:56.215Z,93.70
2022-08-19T10:18:26.505Z,93.60
2022-08-19T10:21:04.458Z,93.60
2022-08-19T10:23:33.724Z,93.70
2022-08-19T10:26:04.442Z,93.80
2022-08-19T10:28:35.111Z,93.80
2022-08-19T10:31:08.880Z,93.90
2022-08-19T10:33:40.932Z,94.00
2022-08-19T10:36:24.823Z,94.00
2022-08-19T10:38:58.494Z,94.00
2022-08-19T10:41:29.402Z,93.90
2022-08-19T10:44:04.195Z,94.10
2022-08-19T10:46:34.113Z,94.60
2022-08-19T10:49:02.863Z,95.00
2022-08-19T10:51:49.221Z,95.20
2022-08-19T10:54:31.154Z,95.40
2022-08-19T10:57:00.535Z,95.50
2022-08-19T10:59:36.022Z,95.40
2022-08-19T11:02:06.713Z,95.50
2022-08-19T11:04:35.718Z,95.20
2022-08-19T11:07:04.791Z,94.90
2022-08-19T11:09:34.575Z,94.90
2022-08-19T11:12:04.833Z,94.90
2022-08-19T11:14:35.760Z,94.90
2022-08-19T11:17:05.220Z,94.90
2022-08-19T11:19:34.241Z,94.80
2022-08-19T11:22:04.445Z,94.70
2022-08-19T11:24:33.890Z,94.70
2022-08-19T11:27:10.248Z,94.50
2022-08-19T11:29:41.151Z,94.20
2022-08-19T11:32:11.818Z,94.00
2022-08-19T11:34:40.297Z,94.00
2022-08-19T11:37:09.969Z,93.80
2022-08-19T11:39:39.025Z,93.90
2022-08-19T11:42:29.152Z,93.80
2022-08-19T11:44:59.071Z,93.60
2022-08-19T11:47:27.465Z,93.40
2022-08-19T11:49:55.853Z,93.40
2022-08-19T11:52:24.171Z,93.30
2022-08-19T11:54:52.495Z,93.20
2022-08-19T11:57:20.934Z,93.30
2022-08-19T11:59:53.666Z,93.10
2022-08-19T12:02:24.383Z,92.80
2022-08-19T12:04:52.713Z,92.60
2022-08-19T12:07:21.512Z,92.40
2022-08-19T12:09:49.805Z,92.00
2022-08-19T12:12:18.294Z,91.90
2022-08-19T12:14:47.605Z,92.00
2022-08-19T12:17:16.295Z,92.00
2022-08-19T12:19:46.010Z,92.00
2022-08-19T12:22:14.325Z,92.00
2022-08-19T12:24:42.660Z,92.30
2022-08-19T12:27:12.866Z,92.30
2022-08-19T12:29:42.584Z,92.00
2022-08-19T12:32:12.215Z,91.70
2022-08-19T12:34:41.106Z,91.50
2022-08-19T12:37:12.028Z,91.30
2022-08-19T12:39:42.489Z,91.10
2022-08-19T12:42:11.915Z,91.00
2022-08-19T12:44:42.700Z,90.70
2022-08-19T12:47:13.367Z,90.50
2022-08-19T12:49:53.461Z,90.60
2022-08-19T12:52:25.968Z,90.60
2022-08-19T12:54:56.527Z,90.70
2022-08-19T12:57:32.545Z,90.60
2022-08-19T13:00:04.895Z,90.40
2022-08-19T13:02:38.736Z,90.30
2022-08-19T13:05:10.894Z,90.30
2022-08-19T13:07:41.929Z,90.30
2022-08-19T13:10:13.443Z,90.00
2022-08-19T13:12:42.964Z,89.70
2022-08-19T13:15:12.361Z,89.60
2022-08-19T13:17:42.163Z,89.50
2022-08-19T13:20:12.357Z,89.50
2022-08-19T13:22:42.086Z,89.50
2022-08-19T13:25:11.517Z,89.50
2022-08-19T13:27:41.007Z,89.30
2022-08-19T13:30:30.438Z,89.40
2022-08-19T13:33:16.259Z,89.30
2022-08-19T13:35:47.981Z,89.60
2022-08-19T13:38:21.533Z,89.90
2022-08-19T13:40:52.547Z,90.00
2022-08-19T13:43:23.784Z,89.90
2022-08-19T13:45:56.452Z,89.70
2022-08-19T13:48:27.477Z,89.50
2022-08-19T13:50:56.222Z,89.30
2022-08-19T13:53:26.151Z,88.70
2022-08-19T13:55:55.027Z,88.40
2022-08-19T13:58:23.572Z,87.70
2022-08-19T14:00:51.940Z,87.30
2022-08-19T14:03:20.701Z,87.10
2022-08-19T14:05:49.116Z,86.70
2022-08-19T14:08:17.525Z,86.00
2022-08-19T14:10:47.667Z,85.70
2022-08-19T14:13:18.877Z,85.60
2022-08-19T14:15:48.319Z,85.50
2022-08-19T14:18:17.076Z,85.90
2022-08-19T14:20:46.209Z,85.90
2022-08-19T14:23:14.797Z,86.00
2022-08-19T14:25:44.077Z,85.60
2022-08-19T14:28:13.805Z,85.20
2022-08-19T14:30:45.553Z,85.10
2022-08-19T14:33:14.999Z,84.80
2022-08-19T14:35:46.030Z,84.50
2022-08-19T14:38:24.629Z,85.90
2022-08-19T14:41:13.292Z,90.30
2022-08-19T14:43:43.308Z,90.90
2022-08-19T14:49:00.318Z,91.20
2022-08-19T14:51:28.710Z,91.20
2022-08-19T14:53:57.250Z,91.00
2022-08-19T14:56:27.284Z,91.00
2022-08-19T14:59:01.403Z,90.80
2022-08-19T15:01:30.057Z,90.30
2022-08-19T15:03:58.413Z,90.10
2022-08-19T15:06:27.398Z,90.10
2022-08-19T15:08:57.036Z,90.20
2022-08-19T15:11:28.856Z,90.20
2022-08-19T15:13:58.946Z,90.20
2022-08-19T15:16:28.846Z,90.10
2022-08-19T15:18:59.997Z,90.40
2022-08-19T15:21:29.795Z,90.60
2022-08-19T15:24:00.066Z,90.50
2022-08-19T15:26:29.117Z,90.20
2022-08-19T15:29:09.637Z,90.00
2022-08-19T15:31:38.048Z,89.70
2022-08-19T15:34:07.691Z,89.80
2022-08-19T15:36:38.663Z,90.10
2022-08-19T15:39:10.168Z,90.10
2022-08-19T15:41:41.235Z,90.00
2022-08-19T15:44:14.730Z,89.70
2022-08-19T15:46:45.408Z,89.20
2022-08-19T15:49:15.833Z,88.50
2022-08-19T15:51:46.284Z,87.20
2022-08-19T15:54:16.521Z,87.10
2022-08-19T15:57:01.852Z,86.90
2022-08-19T15:59:48.785Z,87.00
2022-08-19T16:02:37.052Z,87.30
2022-08-19T16:05:26.850Z,87.70
2022-08-19T16:07:55.411Z,87.90
2022-08-19T16:10:27.089Z,88.40
2022-08-19T16:12:57.047Z,88.80
2022-08-19T16:15:28.129Z,89.10
2022-08-19T16:17:57.666Z,89.70
2022-08-19T16:20:28.676Z,89.70
2022-08-19T16:22:58.524Z,89.30
2022-08-19T16:25:30.034Z,89.60
2022-08-19T16:28:07.844Z,90.20
2022-08-19T16:30:40.199Z,90.30
2022-08-19T16:33:09.777Z,90.40
2022-08-19T16:35:38.633Z,90.40
2022-08-19T16:38:07.216Z,90.30
2022-08-19T16:40:36.042Z,90.30
2022-08-19T16:43:04.940Z,90.10
2022-08-19T16:45:33.347Z,90.10
2022-08-19T16:48:03.985Z,90.00
2022-08-19T16:50:48.624Z,89.70
2022-08-19T16:53:18.251Z,89.50
2022-08-19T16:55:50.990Z,88.90
2022-08-19T16:58:19.557Z,88.70
2022-08-19T17:00:48.585Z,89.10
2022-08-19T17:03:19.788Z,88.60
2022-08-19T17:06:04.260Z,88.30
2022-08-19T17:08:34.378Z,88.30
2022-08-19T17:11:17.611Z,88.30
2022-08-19T17:13:47.714Z,88.30
2022-08-19T17:16:17.329Z,88.20
2022-08-19T17:18:50.511Z,87.80
2022-08-19T17:21:18.851Z,87.30
2022-08-19T17:23:47.146Z,87.00
2022-08-19T17:26:18.324Z,86.90
2022-08-19T17:28:49.135Z,86.80
2022-08-19T17:31:19.162Z,86.90
2022-08-19T17:33:49.150Z,86.90
2022-08-19T17:36:18.591Z,87.10
2022-08-19T17:38:47.912Z,87.30
2022-08-19T17:41:16.411Z,87.60
2022-08-19T17:43:46.282Z,87.70
2022-08-19T17:46:18.689Z,87.50
2022-08-19T17:48:52.715Z,87.60
2022-08-19T17:51:25.340Z,87.90
2022-08-19T17:53:55.554Z,88.10
2022-08-19T17:56:25.262Z,88.50
2022-08-19T17:59:00.145Z,88.60
2022-08-19T18:01:43.917Z,88.80
2022-08-19T18:04:21.204Z,89.10
2022-08-19T18:06:53.181Z,89.40
2022-08-19T18:09:23.770Z,90.10
2022-08-19T18:11:53.780Z,90.00
2022-08-19T18:14:28.035Z,90.10
2022-08-19T18:17:01.336Z,90.30
2022-08-19T18:22:25.308Z,90.60
2022-08-19T18:27:40.052Z,90.70
2022-08-19T18:30:10.167Z,90.60
2022-08-19T18:32:42.352Z,90.70
2022-08-19T18:35:15.913Z,90.70
2022-08-19T18:37:45.904Z,90.70
2022-08-19T18:40:35.620Z,90.80
2022-08-19T18:43:17.952Z,90.90
2022-08-19T18:46:04.515Z,91.10
2022-08-19T18:49:01.948Z,91.30
2022-08-19T18:51:32.169Z,91.40
2022-08-19T18:54:01.665Z,91.60
2022-08-19T18:56:32.387Z,91.70
2022-08-19T18:59:01.924Z,91.90
2022-08-19T19:01:32.794Z,92.00
2022-08-19T19:04:06.327Z,92.20
2022-08-19T19:06:40.334Z,92.20
2022-08-19T19:09:10.514Z,92.20
2022-08-19T19:11:42.608Z,92.10
2022-08-19T19:14:23.305Z,92.00
2022-08-19T19:17:02.095Z,91.70
2022-08-19T19:19:31.287Z,91.60
2022-08-19T19:22:01.117Z,91.60
2022-08-19T19:24:32.560Z,91.70
2022-08-19T19:27:06.153Z,91.70
2022-08-19T19:29:36.704Z,91.90
2022-08-19T19:32:07.163Z,92.00
2022-08-19T19:34:36.107Z,92.20
2022-08-19T19:37:06.241Z,92.50
2022-08-19T19:39:46.591Z,92.60
2022-08-19T19:42:19.894Z,92.80
2022-08-19T19:44:50.645Z,93.00
2022-08-19T19:47:19.543Z,93.00
2022-08-19T19:50:13.895Z,93.10
2022-08-19T19:52:41.781Z,93.30
2022-08-19T19:55:18.355Z,93.40
2022-08-19T19:57:47.335Z,93.50
2022-08-19T20:00:18.599Z,93.60
2022-08-19T20:02:50.064Z,93.70
2022-08-19T20:05:21.416Z,93.70
2022-08-19T20:08:10.342Z,93.80
2022-08-19T20:10:39.229Z,93.80
2022-08-19T20:13:08.849Z,93.90
2022-08-19T20:15:42.404Z,94.00
2022-08-19T20:18:11.809Z,94.00
2022-08-19T20:20:40.149Z,93.80
2022-08-19T20:23:09.941Z,94.20
2022-08-19T20:25:39.473Z,94.20
2022-08-19T20:28:07.845Z,94.30
2022-08-19T20:30:39.535Z,94.40
2022-08-19T20:33:13.954Z,94.40
2022-08-19T20:35:42.761Z,94.40
2022-08-19T20:38:12.633Z,94.50
2022-08-19T20:40:41.312Z,94.50
2022-08-19T20:43:12.187Z,94.60
2022-08-19T20:45:41.028Z,94.60
2022-08-19T20:48:12.582Z,94.70
2022-08-19T20:50:41.042Z,94.80
2022-08-19T20:53:16.782Z,95.20
2022-08-19T20:55:46.580Z,94.90
2022-08-19T20:58:15.159Z,95.00
2022-08-19T21:00:45.708Z,95.10
2022-08-19T21:03:15.549Z,95.10
2022-08-19T21:05:45.717Z,95.20
2022-08-19T21:08:18.269Z,95.20
2022-08-19T21:10:46.869Z,95.30
2022-08-19T21:13:15.658Z,95.40
2022-08-19T21:15:45.522Z,95.50
2022-08-19T21:18:15.518Z,95.50
2022-08-19T21:20:45.199Z,95.60
2022-08-19T21:23:17.522Z,95.70
2022-08-19T21:25:54.027Z,95.70
2022-08-19T21:28:34.308Z,95.80
2022-08-19T21:31:06.307Z,95.90
2022-08-19T21:33:34.712Z,96.00
2022-08-19T21:36:03.217Z,96.00
2022-08-19T21:38:33.316Z,96.20
2022-08-19T21:41:04.286Z,96.20
2022-08-19T21:43:34.944Z,96.30
2022-08-19T21:46:03.557Z,96.50
2022-08-19T21:48:31.958Z,96.60
2022-08-19T21:51:00.255Z,96.80
2022-08-19T21:53:34.142Z,97.00
2022-08-19T21:56:05.537Z,97.10
2022-08-19T21:58:34.582Z,97.30
2022-08-19T22:01:07.748Z,97.30
2022-08-19T22:03:38.039Z,97.40
2022-08-19T22:06:06.599Z,97.60
2022-08-19T22:08:35.026Z,97.60
2022-08-19T22:11:05.513Z,97.70
2022-08-19T22:13:40.071Z,97.70
2022-08-19T22:16:09.664Z,97.80
2022-08-19T22:18:37.986Z,97.80
2022-08-19T22:21:11.399Z,97.90
2022-08-19T22:23:40.647Z,97.90
2022-08-19T22:26:10.570Z,97.90
2022-08-19T22:28:39.575Z,98.00
2022-08-19T22:31:08.525Z,98.00
2022-08-19T22:33:38.410Z,98.00
2022-08-19T22:36:08.623Z,98.00
2022-08-19T22:38:38.435Z,98.00
2022-08-19T22:41:08.137Z,98.00
2022-08-19T22:43:38.110Z,98.00
2022-08-19T22:46:16.829Z,97.90
2022-08-19T22:48:46.934Z,97.90
2022-08-19T22:51:32.766Z,97.90
2022-08-19T22:54:03.228Z,97.90
2022-08-19T22:56:31.558Z,97.90
2022-08-19T22:59:03.557Z,97.90
2022-08-19T23:01:32.410Z,97.80
2022-08-19T23:04:03.805Z,97.90
2022-08-19T23:06:33.953Z,97.80
2022-08-19T23:09:05.153Z,97.80
2022-08-19T23:11:38.127Z,97.90
2022-08-19T23:14:12.708Z,97.90
2022-08-19T23:16:41.937Z,98.00
2022-08-19T23:19:11.187Z,98.00
2022-08-19T23:21:39.735Z,98.10
2022-08-19T23:24:08.836Z,98.10
2022-08-19T23:26:37.239Z,98.20
2022-08-19T23:29:24.326Z,98.20
2022-08-19T23:31:54.077Z,98.20
2022-08-19T23:34:22.926Z,98.20
2022-08-19T23:36:51.594Z,98.20
2022-08-19T23:39:20.240Z,98.20
2022-08-19T23:41:48.558Z,98.30
2022-08-19T23:44:17.554Z,98.30
2022-08-19T23:46:55.220Z,98.40
2022-08-19T23:49:26.468Z,98.40
2022-08-19T23:51:56.306Z,98.50
2022-08-19T23:54:35.225Z,98.50
2022-08-19T23:57:13.837Z,98.60
2022-08-19T23:59:45.572Z,98.60
